sensor_id;sensor_type;location;lat;lon;timestamp;P1;durP1;ratioP1;P2;durP2;ratioP2
27543;SDS011;17996;51.056;3.656;2022-12-29T00:01:24;1.50;;;1.38;;
27543;SDS011;17996;51.056;3.656;2022-12-29T00:03:50;6.35;;;1.50;;
27543;SDS011;17996;51.056;3.656;2022-12-29T00:06:16;2.00;;;1.20;;
27543;SDS011;17996;51.056;3.656;2022-12-29T00:08:41;2.20;;;1.58;;
27543;SDS011;17996;51.056;3.656;2022-12-29T00:11:08;1.40;;;1.20;;
27543;SDS011;17996;51.056;3.656;2022-12-29T00:13:38;3.05;;;1.30;;
27543;SDS011;17996;51.056;3.656;2022-12-29T00:16:22;2.47;;;1.48;;
27543;SDS011;17996;51.056;3.656;2022-12-29T00:18:49;2.08;;;1.27;;
27543;SDS011;17996;51.056;3.656;2022-12-29T00:21:16;1.45;;;1.20;;
27543;SDS011;17996;51.056;3.656;2022-12-29T00:24:01;1.83;;;1.00;;
27543;SDS011;17996;51.056;3.656;2022-12-29T00:26:50;3.15;;;1.00;;
27543;SDS011;17996;51.056;3.656;2022-12-29T00:29:46;4.07;;;1.30;;
27543;SDS011;17996;51.056;3.656;2022-12-29T00:32:31;5.88;;;1.70;;
27543;SDS011;17996;51.056;3.656;2022-12-29T00:35:21;3.00;;;1.17;;
27543;SDS011;17996;51.056;3.656;2022-12-29T00:37:50;6.22;;;1.00;;
27543;SDS011;17996;51.056;3.656;2022-12-29T00:40:35;6.80;;;1.65;;
27543;SDS011;17996;51.056;3.656;2022-12-29T00:43:19;3.85;;;1.40;;
27543;SDS011;17996;51.056;3.656;2022-12-29T00:46:03;5.47;;;1.38;;
27543;SDS011;17996;51.056;3.656;2022-12-29T00:48:29;5.13;;;1.02;;
27543;SDS011;17996;51.056;3.656;2022-12-29T00:51:13;6.75;;;1.45;;
27543;SDS011;17996;51.056;3.656;2022-12-29T00:53:39;6.32;;;1.40;;
27543;SDS011;17996;51.056;3.656;2022-12-29T00:56:04;5.50;;;1.70;;
27543;SDS011;17996;51.056;3.656;2022-12-29T00:58:30;4.10;;;1.30;;
27543;SDS011;17996;51.056;3.656;2022-12-29T01:01:06;4.15;;;1.30;;
27543;SDS011;17996;51.056;3.656;2022-12-29T01:03:36;3.20;;;1.40;;
27543;SDS011;17996;51.056;3.656;2022-12-29T01:06:03;9.60;;;2.03;;
27543;SDS011;17996;51.056;3.656;2022-12-29T01:08:31;3.30;;;1.47;;
27543;SDS011;17996;51.056;3.656;2022-12-29T01:10:57;5.63;;;2.20;;
27543;SDS011;17996;51.056;3.656;2022-12-29T01:13:31;7.80;;;2.08;;
27543;SDS011;17996;51.056;3.656;2022-12-29T01:15:56;7.28;;;1.45;;
27543;SDS011;17996;51.056;3.656;2022-12-29T01:18:22;6.70;;;1.90;;
27543;SDS011;17996;51.056;3.656;2022-12-29T01:20:49;6.43;;;2.25;;
27543;SDS011;17996;51.056;3.656;2022-12-29T01:23:15;7.13;;;1.40;;
27543;SDS011;17996;51.056;3.656;2022-12-29T01:25:41;4.07;;;1.33;;
27543;SDS011;17996;51.056;3.656;2022-12-29T01:28:06;7.43;;;1.77;;
27543;SDS011;17996;51.056;3.656;2022-12-29T01:30:35;7.97;;;1.40;;
27543;SDS011;17996;51.056;3.656;2022-12-29T01:33:01;6.57;;;1.43;;
27543;SDS011;17996;51.056;3.656;2022-12-29T01:35:27;7.65;;;1.48;;
27543;SDS011;17996;51.056;3.656;2022-12-29T01:37:52;5.60;;;1.55;;
27543;SDS011;17996;51.056;3.656;2022-12-29T01:40:18;12.35;;;1.80;;
27543;SDS011;17996;51.056;3.656;2022-12-29T01:42:44;7.53;;;1.58;;
27543;SDS011;17996;51.056;3.656;2022-12-29T01:45:13;6.35;;;1.50;;
27543;SDS011;17996;51.056;3.656;2022-12-29T01:47:41;6.75;;;1.50;;
27543;SDS011;17996;51.056;3.656;2022-12-29T01:50:28;9.30;;;1.77;;
27543;SDS011;17996;51.056;3.656;2022-12-29T01:53:00;8.45;;;1.90;;
27543;SDS011;17996;51.056;3.656;2022-12-29T01:55:31;10.20;;;2.50;;
27543;SDS011;17996;51.056;3.656;2022-12-29T01:58:01;7.90;;;1.75;;
27543;SDS011;17996;51.056;3.656;2022-12-29T02:00:29;9.02;;;1.92;;
27543;SDS011;17996;51.056;3.656;2022-12-29T02:02:55;6.43;;;1.75;;
27543;SDS011;17996;51.056;3.656;2022-12-29T02:07:53;9.88;;;1.45;;
27543;SDS011;17996;51.056;3.656;2022-12-29T02:10:20;8.30;;;1.77;;
27543;SDS011;17996;51.056;3.656;2022-12-29T02:12:47;3.95;;;1.75;;
27543;SDS011;17996;51.056;3.656;2022-12-29T02:15:13;9.85;;;2.05;;
27543;SDS011;17996;51.056;3.656;2022-12-29T02:37:26;12.57;;;1.98;;
27543;SDS011;17996;51.056;3.656;2022-12-29T02:40:07;15.45;;;1.98;;
27543;SDS011;17996;51.056;3.656;2022-12-29T02:53:17;5.03;;;1.40;;
27543;SDS011;17996;51.056;3.656;2022-12-29T02:56:04;12.75;;;2.40;;
27543;SDS011;17996;51.056;3.656;2022-12-29T02:58:30;9.73;;;2.00;;
27543;SDS011;17996;51.056;3.656;2022-12-29T03:07:01;8.77;;;1.90;;
27543;SDS011;17996;51.056;3.656;2022-12-29T03:12:29;10.65;;;1.70;;
27543;SDS011;17996;51.056;3.656;2022-12-29T03:15:22;7.32;;;1.90;;
27543;SDS011;17996;51.056;3.656;2022-12-29T03:18:15;10.77;;;2.78;;
27543;SDS011;17996;51.056;3.656;2022-12-29T03:20:55;10.73;;;2.17;;
27543;SDS011;17996;51.056;3.656;2022-12-29T03:25:55;11.75;;;2.33;;
27543;SDS011;17996;51.056;3.656;2022-12-29T03:28:28;14.68;;;2.53;;
27543;SDS011;17996;51.056;3.656;2022-12-29T03:30:57;16.45;;;2.67;;
27543;SDS011;17996;51.056;3.656;2022-12-29T03:33:25;15.50;;;2.00;;
27543;SDS011;17996;51.056;3.656;2022-12-29T03:35:54;9.13;;;1.90;;
27543;SDS011;17996;51.056;3.656;2022-12-29T03:41:14;9.93;;;2.03;;
27543;SDS011;17996;51.056;3.656;2022-12-29T03:43:45;16.23;;;2.53;;
27543;SDS011;17996;51.056;3.656;2022-12-29T03:46:11;9.13;;;1.80;;
27543;SDS011;17996;51.056;3.656;2022-12-29T03:48:36;12.95;;;2.15;;
27543;SDS011;17996;51.056;3.656;2022-12-29T03:51:02;12.85;;;2.00;;
27543;SDS011;17996;51.056;3.656;2022-12-29T03:53:28;18.27;;;2.70;;
27543;SDS011;17996;51.056;3.656;2022-12-29T03:55:53;9.60;;;2.10;;
27543;SDS011;17996;51.056;3.656;2022-12-29T03:58:19;16.65;;;3.05;;
27543;SDS011;17996;51.056;3.656;2022-12-29T04:00:45;17.63;;;2.78;;
27543;SDS011;17996;51.056;3.656;2022-12-29T04:03:10;20.10;;;3.53;;
27543;SDS011;17996;51.056;3.656;2022-12-29T04:05:36;12.77;;;2.53;;
27543;SDS011;17996;51.056;3.656;2022-12-29T04:08:02;17.05;;;2.70;;
27543;SDS011;17996;51.056;3.656;2022-12-29T04:10:27;14.15;;;2.75;;
27543;SDS011;17996;51.056;3.656;2022-12-29T04:12:53;12.20;;;3.00;;
27543;SDS011;17996;51.056;3.656;2022-12-29T04:15:19;16.52;;;2.50;;
27543;SDS011;17996;51.056;3.656;2022-12-29T04:17:44;17.38;;;2.47;;
27543;SDS011;17996;51.056;3.656;2022-12-29T04:20:10;15.00;;;2.78;;
27543;SDS011;17996;51.056;3.656;2022-12-29T04:23:03;15.75;;;2.85;;
27543;SDS011;17996;51.056;3.656;2022-12-29T04:25:30;13.52;;;2.75;;
27543;SDS011;17996;51.056;3.656;2022-12-29T04:27:57;16.92;;;2.85;;
27543;SDS011;17996;51.056;3.656;2022-12-29T04:30:22;20.33;;;2.78;;
27543;SDS011;17996;51.056;3.656;2022-12-29T04:32:48;20.55;;;3.70;;
27543;SDS011;17996;51.056;3.656;2022-12-29T04:35:14;14.82;;;2.50;;
27543;SDS011;17996;51.056;3.656;2022-12-29T04:37:40;10.63;;;2.30;;
27543;SDS011;17996;51.056;3.656;2022-12-29T04:40:05;17.73;;;2.22;;
27543;SDS011;17996;51.056;3.656;2022-12-29T04:42:32;12.40;;;2.83;;
27543;SDS011;17996;51.056;3.656;2022-12-29T04:44:57;14.57;;;2.22;;
27543;SDS011;17996;51.056;3.656;2022-12-29T04:47:23;11.27;;;2.05;;
27543;SDS011;17996;51.056;3.656;2022-12-29T04:49:48;14.80;;;2.90;;
27543;SDS011;17996;51.056;3.656;2022-12-29T04:52:14;12.25;;;2.38;;
27543;SDS011;17996;51.056;3.656;2022-12-29T04:54:40;15.18;;;3.22;;
27543;SDS011;17996;51.056;3.656;2022-12-29T04:57:05;17.42;;;2.85;;
27543;SDS011;17996;51.056;3.656;2022-12-29T04:59:31;15.02;;;2.28;;
27543;SDS011;17996;51.056;3.656;2022-12-29T05:01:56;11.98;;;2.55;;
27543;SDS011;17996;51.056;3.656;2022-12-29T05:04:22;14.02;;;2.67;;
27543;SDS011;17996;51.056;3.656;2022-12-29T05:06:48;9.27;;;1.90;;
27543;SDS011;17996;51.056;3.656;2022-12-29T05:09:13;9.95;;;2.13;;
27543;SDS011;17996;51.056;3.656;2022-12-29T05:11:39;13.27;;;2.45;;
27543;SDS011;17996;51.056;3.656;2022-12-29T05:14:05;10.98;;;2.10;;
27543;SDS011;17996;51.056;3.656;2022-12-29T05:16:30;8.65;;;2.50;;
27543;SDS011;17996;51.056;3.656;2022-12-29T05:18:56;14.80;;;2.65;;
27543;SDS011;17996;51.056;3.656;2022-12-29T05:21:22;8.38;;;1.83;;
27543;SDS011;17996;51.056;3.656;2022-12-29T05:23:47;10.60;;;2.05;;
27543;SDS011;17996;51.056;3.656;2022-12-29T05:26:13;11.95;;;3.13;;
27543;SDS011;17996;51.056;3.656;2022-12-29T05:28:38;12.90;;;2.53;;
27543;SDS011;17996;51.056;3.656;2022-12-29T05:31:04;18.77;;;2.72;;
27543;SDS011;17996;51.056;3.656;2022-12-29T05:33:30;9.13;;;2.10;;
27543;SDS011;17996;51.056;3.656;2022-12-29T05:35:55;15.50;;;2.53;;
27543;SDS011;17996;51.056;3.656;2022-12-29T05:38:21;11.40;;;2.13;;
27543;SDS011;17996;51.056;3.656;2022-12-29T05:40:46;7.38;;;2.17;;
27543;SDS011;17996;51.056;3.656;2022-12-29T05:43:12;10.95;;;2.65;;
27543;SDS011;17996;51.056;3.656;2022-12-29T05:45:38;10.88;;;2.08;;
27543;SDS011;17996;51.056;3.656;2022-12-29T05:48:03;11.07;;;2.28;;
27543;SDS011;17996;51.056;3.656;2022-12-29T05:50:29;17.75;;;2.55;;
27543;SDS011;17996;51.056;3.656;2022-12-29T05:52:55;17.85;;;2.55;;
27543;SDS011;17996;51.056;3.656;2022-12-29T05:55:21;14.00;;;3.00;;
27543;SDS011;17996;51.056;3.656;2022-12-29T05:57:46;13.15;;;2.72;;
27543;SDS011;17996;51.056;3.656;2022-12-29T06:00:12;14.90;;;2.45;;
27543;SDS011;17996;51.056;3.656;2022-12-29T06:02:39;16.33;;;3.10;;
27543;SDS011;17996;51.056;3.656;2022-12-29T06:05:04;18.75;;;2.97;;
27543;SDS011;17996;51.056;3.656;2022-12-29T06:07:30;10.65;;;2.53;;
27543;SDS011;17996;51.056;3.656;2022-12-29T06:09:56;13.60;;;2.67;;
27543;SDS011;17996;51.056;3.656;2022-12-29T06:12:21;21.50;;;4.10;;
27543;SDS011;17996;51.056;3.656;2022-12-29T06:14:47;13.65;;;3.38;;
27543;SDS011;17996;51.056;3.656;2022-12-29T06:17:13;15.02;;;2.75;;
27543;SDS011;17996;51.056;3.656;2022-12-29T06:19:38;15.27;;;3.00;;
27543;SDS011;17996;51.056;3.656;2022-12-29T06:22:04;10.25;;;3.03;;
27543;SDS011;17996;51.056;3.656;2022-12-29T06:24:30;16.85;;;2.88;;
27543;SDS011;17996;51.056;3.656;2022-12-29T06:26:55;17.90;;;3.17;;
27543;SDS011;17996;51.056;3.656;2022-12-29T06:29:21;18.73;;;3.40;;
27543;SDS011;17996;51.056;3.656;2022-12-29T06:31:46;21.10;;;3.33;;
27543;SDS011;17996;51.056;3.656;2022-12-29T06:34:13;17.40;;;2.67;;
27543;SDS011;17996;51.056;3.656;2022-12-29T06:36:39;19.05;;;3.83;;
27543;SDS011;17996;51.056;3.656;2022-12-29T06:39:05;16.38;;;4.00;;
27543;SDS011;17996;51.056;3.656;2022-12-29T06:41:31;15.48;;;3.13;;
27543;SDS011;17996;51.056;3.656;2022-12-29T06:43:57;20.77;;;3.85;;
27543;SDS011;17996;51.056;3.656;2022-12-29T06:46:22;20.00;;;3.75;;
27543;SDS011;17996;51.056;3.656;2022-12-29T06:48:48;25.08;;;3.03;;
27543;SDS011;17996;51.056;3.656;2022-12-29T06:51:14;14.43;;;2.60;;
27543;SDS011;17996;51.056;3.656;2022-12-29T06:53:39;19.20;;;3.30;;
27543;SDS011;17996;51.056;3.656;2022-12-29T06:56:05;23.98;;;3.10;;
27543;SDS011;17996;51.056;3.656;2022-12-29T06:58:31;21.33;;;3.35;;
27543;SDS011;17996;51.056;3.656;2022-12-29T07:00:57;29.75;;;4.90;;
27543;SDS011;17996;51.056;3.656;2022-12-29T07:03:23;24.48;;;3.45;;
27543;SDS011;17996;51.056;3.656;2022-12-29T07:05:48;14.00;;;3.13;;
27543;SDS011;17996;51.056;3.656;2022-12-29T07:08:14;21.88;;;3.38;;
27543;SDS011;17996;51.056;3.656;2022-12-29T07:10:39;21.23;;;3.53;;
27543;SDS011;17996;51.056;3.656;2022-12-29T07:13:05;18.90;;;3.30;;
27543;SDS011;17996;51.056;3.656;2022-12-29T07:15:32;13.60;;;3.05;;
27543;SDS011;17996;51.056;3.656;2022-12-29T07:17:59;13.45;;;2.97;;
27543;SDS011;17996;51.056;3.656;2022-12-29T07:20:25;16.58;;;3.58;;
27543;SDS011;17996;51.056;3.656;2022-12-29T07:22:50;21.58;;;3.90;;
27543;SDS011;17996;51.056;3.656;2022-12-29T07:25:16;22.85;;;3.10;;
27543;SDS011;17996;51.056;3.656;2022-12-29T07:27:42;18.88;;;3.45;;
27543;SDS011;17996;51.056;3.656;2022-12-29T07:30:08;18.27;;;3.42;;
27543;SDS011;17996;51.056;3.656;2022-12-29T07:32:34;15.98;;;3.25;;
27543;SDS011;17996;51.056;3.656;2022-12-29T07:35:00;20.85;;;3.15;;
27543;SDS011;17996;51.056;3.656;2022-12-29T07:37:26;23.33;;;3.75;;
27543;SDS011;17996;51.056;3.656;2022-12-29T07:39:52;24.73;;;3.90;;
27543;SDS011;17996;51.056;3.656;2022-12-29T07:42:18;18.42;;;3.67;;
27543;SDS011;17996;51.056;3.656;2022-12-29T07:44:44;23.05;;;3.85;;
27543;SDS011;17996;51.056;3.656;2022-12-29T07:47:09;20.00;;;3.40;;
27543;SDS011;17996;51.056;3.656;2022-12-29T07:49:35;22.35;;;4.72;;
27543;SDS011;17996;51.056;3.656;2022-12-29T07:52:00;12.50;;;2.90;;
27543;SDS011;17996;51.056;3.656;2022-12-29T07:54:26;21.05;;;4.15;;
27543;SDS011;17996;51.056;3.656;2022-12-29T07:56:52;23.35;;;3.47;;
27543;SDS011;17996;51.056;3.656;2022-12-29T07:59:17;20.13;;;3.40;;
27543;SDS011;17996;51.056;3.656;2022-12-29T08:01:43;27.10;;;3.40;;
27543;SDS011;17996;51.056;3.656;2022-12-29T08:04:09;18.60;;;3.05;;
27543;SDS011;17996;51.056;3.656;2022-12-29T08:06:34;16.23;;;3.97;;
27543;SDS011;17996;51.056;3.656;2022-12-29T08:09:00;21.95;;;4.00;;
27543;SDS011;17996;51.056;3.656;2022-12-29T08:11:27;23.70;;;4.20;;
27543;SDS011;17996;51.056;3.656;2022-12-29T08:13:52;23.15;;;3.08;;
27543;SDS011;17996;51.056;3.656;2022-12-29T08:16:18;20.77;;;3.33;;
27543;SDS011;17996;51.056;3.656;2022-12-29T08:18:44;25.35;;;3.78;;
27543;SDS011;17996;51.056;3.656;2022-12-29T08:21:09;20.80;;;3.95;;
27543;SDS011;17996;51.056;3.656;2022-12-29T08:23:36;20.77;;;3.60;;
27543;SDS011;17996;51.056;3.656;2022-12-29T08:26:03;16.88;;;3.65;;
27543;SDS011;17996;51.056;3.656;2022-12-29T08:28:30;16.52;;;2.70;;
27543;SDS011;17996;51.056;3.656;2022-12-29T08:30:57;21.95;;;3.50;;
27543;SDS011;17996;51.056;3.656;2022-12-29T08:33:23;16.63;;;3.13;;
27543;SDS011;17996;51.056;3.656;2022-12-29T08:35:49;23.20;;;4.32;;
27543;SDS011;17996;51.056;3.656;2022-12-29T08:38:15;26.98;;;3.58;;
27543;SDS011;17996;51.056;3.656;2022-12-29T08:40:40;21.35;;;4.25;;
27543;SDS011;17996;51.056;3.656;2022-12-29T08:43:06;19.52;;;3.08;;
27543;SDS011;17996;51.056;3.656;2022-12-29T08:45:32;15.43;;;3.20;;
27543;SDS011;17996;51.056;3.656;2022-12-29T08:47:58;13.45;;;2.70;;
27543;SDS011;17996;51.056;3.656;2022-12-29T08:50:23;27.50;;;4.00;;
27543;SDS011;17996;51.056;3.656;2022-12-29T08:52:50;14.27;;;3.08;;
27543;SDS011;17996;51.056;3.656;2022-12-29T08:55:15;24.65;;;2.83;;
27543;SDS011;17996;51.056;3.656;2022-12-29T08:57:41;20.67;;;3.45;;
27543;SDS011;17996;51.056;3.656;2022-12-29T09:00:07;22.45;;;3.97;;
27543;SDS011;17996;51.056;3.656;2022-12-29T09:02:33;19.48;;;3.50;;
27543;SDS011;17996;51.056;3.656;2022-12-29T09:04:59;19.40;;;3.58;;
27543;SDS011;17996;51.056;3.656;2022-12-29T09:07:25;18.23;;;3.25;;
27543;SDS011;17996;51.056;3.656;2022-12-29T09:09:51;28.55;;;4.97;;
27543;SDS011;17996;51.056;3.656;2022-12-29T09:12:17;23.70;;;3.80;;
27543;SDS011;17996;51.056;3.656;2022-12-29T09:14:43;22.30;;;4.10;;
27543;SDS011;17996;51.056;3.656;2022-12-29T09:17:11;22.30;;;4.03;;
27543;SDS011;17996;51.056;3.656;2022-12-29T09:19:55;31.73;;;6.50;;
27543;SDS011;17996;51.056;3.656;2022-12-29T09:22:21;30.77;;;4.32;;
27543;SDS011;17996;51.056;3.656;2022-12-29T09:24:47;18.20;;;3.90;;
27543;SDS011;17996;51.056;3.656;2022-12-29T09:27:12;25.73;;;4.25;;
27543;SDS011;17996;51.056;3.656;2022-12-29T09:29:38;19.13;;;4.30;;
27543;SDS011;17996;51.056;3.656;2022-12-29T09:32:04;22.35;;;3.65;;
27543;SDS011;17996;51.056;3.656;2022-12-29T09:34:29;25.23;;;4.78;;
27543;SDS011;17996;51.056;3.656;2022-12-29T09:36:55;38.38;;;5.40;;
27543;SDS011;17996;51.056;3.656;2022-12-29T09:39:22;28.98;;;4.95;;
27543;SDS011;17996;51.056;3.656;2022-12-29T09:44:29;29.45;;;4.35;;
27543;SDS011;17996;51.056;3.656;2022-12-29T09:47:09;29.38;;;4.88;;
27543;SDS011;17996;51.056;3.656;2022-12-29T09:52:28;16.75;;;3.90;;
27543;SDS011;17996;51.056;3.656;2022-12-29T09:55:17;30.70;;;4.40;;
27543;SDS011;17996;51.056;3.656;2022-12-29T09:57:53;25.23;;;5.05;;
27543;SDS011;17996;51.056;3.656;2022-12-29T10:03:20;25.75;;;4.20;;
27543;SDS011;17996;51.056;3.656;2022-12-29T10:08:44;23.35;;;3.72;;
27543;SDS011;17996;51.056;3.656;2022-12-29T10:14:22;27.30;;;4.65;;
27543;SDS011;17996;51.056;3.656;2022-12-29T10:22:51;26.35;;;4.18;;
27543;SDS011;17996;51.056;3.656;2022-12-29T10:25:39;22.10;;;3.83;;
27543;SDS011;17996;51.056;3.656;2022-12-29T10:28:14;27.45;;;5.75;;
27543;SDS011;17996;51.056;3.656;2022-12-29T10:30:44;16.00;;;3.72;;
27543;SDS011;17996;51.056;3.656;2022-12-29T10:33:14;24.20;;;3.97;;
27543;SDS011;17996;51.056;3.656;2022-12-29T10:35:54;25.42;;;4.13;;
27543;SDS011;17996;51.056;3.656;2022-12-29T10:38:28;17.08;;;3.42;;
27543;SDS011;17996;51.056;3.656;2022-12-29T10:41:23;25.35;;;3.65;;
27543;SDS011;17996;51.056;3.656;2022-12-29T10:43:54;21.60;;;3.78;;
27543;SDS011;17996;51.056;3.656;2022-12-29T10:46:23;24.63;;;3.70;;
27543;SDS011;17996;51.056;3.656;2022-12-29T10:49:12;13.45;;;3.10;;
27543;SDS011;17996;51.056;3.656;2022-12-29T10:51:42;17.52;;;3.95;;
27543;SDS011;17996;51.056;3.656;2022-12-29T10:54:28;20.17;;;3.10;;
27543;SDS011;17996;51.056;3.656;2022-12-29T10:57:03;13.38;;;2.85;;
27543;SDS011;17996;51.056;3.656;2022-12-29T10:59:31;17.30;;;3.00;;
27543;SDS011;17996;51.056;3.656;2022-12-29T11:07:01;14.93;;;3.60;;
27543;SDS011;17996;51.056;3.656;2022-12-29T11:09:28;18.75;;;3.92;;
27543;SDS011;17996;51.056;3.656;2022-12-29T11:11:56;13.90;;;2.85;;
27543;SDS011;17996;51.056;3.656;2022-12-29T11:14:26;16.23;;;3.10;;
27543;SDS011;17996;51.056;3.656;2022-12-29T11:16:58;20.13;;;3.00;;
27543;SDS011;17996;51.056;3.656;2022-12-29T11:19:25;17.30;;;3.42;;
27543;SDS011;17996;51.056;3.656;2022-12-29T11:21:53;20.48;;;3.75;;
27543;SDS011;17996;51.056;3.656;2022-12-29T11:24:26;19.30;;;3.40;;
27543;SDS011;17996;51.056;3.656;2022-12-29T11:27:15;21.73;;;3.05;;
27543;SDS011;17996;51.056;3.656;2022-12-29T11:29:41;18.15;;;3.60;;
27543;SDS011;17996;51.056;3.656;2022-12-29T11:32:12;15.38;;;2.97;;
27543;SDS011;17996;51.056;3.656;2022-12-29T11:34:42;18.10;;;3.40;;
27543;SDS011;17996;51.056;3.656;2022-12-29T11:37:12;23.85;;;4.45;;
27543;SDS011;17996;51.056;3.656;2022-12-29T11:39:41;14.68;;;2.65;;
27543;SDS011;17996;51.056;3.656;2022-12-29T11:42:22;16.85;;;2.80;;
27543;SDS011;17996;51.056;3.656;2022-12-29T11:45:16;16.58;;;3.30;;
27543;SDS011;17996;51.056;3.656;2022-12-29T11:47:45;19.63;;;3.67;;
27543;SDS011;17996;51.056;3.656;2022-12-29T11:50:18;15.65;;;3.58;;
27543;SDS011;17996;51.056;3.656;2022-12-29T11:52:47;26.80;;;5.10;;
27543;SDS011;17996;51.056;3.656;2022-12-29T11:55:19;22.15;;;4.50;;
27543;SDS011;17996;51.056;3.656;2022-12-29T11:57:47;23.50;;;4.80;;
27543;SDS011;17996;51.056;3.656;2022-12-29T12:00:18;25.75;;;4.35;;
27543;SDS011;17996;51.056;3.656;2022-12-29T12:05:22;22.10;;;4.15;;
27543;SDS011;17996;51.056;3.656;2022-12-29T12:07:54;20.52;;;3.33;;
27543;SDS011;17996;51.056;3.656;2022-12-29T12:10:26;23.38;;;4.88;;
27543;SDS011;17996;51.056;3.656;2022-12-29T12:15:57;18.85;;;4.00;;
27543;SDS011;17996;51.056;3.656;2022-12-29T12:18:41;18.65;;;4.38;;
27543;SDS011;17996;51.056;3.656;2022-12-29T12:21:14;16.35;;;3.13;;
27543;SDS011;17996;51.056;3.656;2022-12-29T12:26:28;13.85;;;3.20;;
27543;SDS011;17996;51.056;3.656;2022-12-29T12:28:59;18.40;;;3.85;;
27543;SDS011;17996;51.056;3.656;2022-12-29T12:34:09;8.30;;;2.15;;
27543;SDS011;17996;51.056;3.656;2022-12-29T12:39:24;9.05;;;1.95;;
27543;SDS011;17996;51.056;3.656;2022-12-29T13:06:26;14.20;;;3.05;;
27543;SDS011;17996;51.056;3.656;2022-12-29T13:09:10;15.88;;;2.90;;
27543;SDS011;17996;51.056;3.656;2022-12-29T13:15:03;13.27;;;2.65;;
27543;SDS011;17996;51.056;3.656;2022-12-29T13:28:10;9.75;;;1.85;;
27543;SDS011;17996;51.056;3.656;2022-12-29T13:30:45;8.35;;;1.92;;
27543;SDS011;17996;51.056;3.656;2022-12-29T13:36:19;12.93;;;2.85;;
27543;SDS011;17996;51.056;3.656;2022-12-29T13:39:02;8.65;;;1.80;;
27543;SDS011;17996;51.056;3.656;2022-12-29T13:44:20;6.65;;;1.98;;
27543;SDS011;17996;51.056;3.656;2022-12-29T13:46:49;7.85;;;2.30;;
27543;SDS011;17996;51.056;3.656;2022-12-29T13:49:17;7.20;;;1.83;;
27543;SDS011;17996;51.056;3.656;2022-12-29T13:51:48;7.57;;;2.40;;
27543;SDS011;17996;51.056;3.656;2022-12-29T13:54:39;9.50;;;2.35;;
27543;SDS011;17996;51.056;3.656;2022-12-29T14:05:32;9.77;;;2.20;;
27543;SDS011;17996;51.056;3.656;2022-12-29T14:08:01;9.18;;;2.53;;
27543;SDS011;17996;51.056;3.656;2022-12-29T14:10:31;9.60;;;2.60;;
27543;SDS011;17996;51.056;3.656;2022-12-29T14:13:05;11.75;;;2.30;;
27543;SDS011;17996;51.056;3.656;2022-12-29T14:15:45;9.02;;;2.20;;
27543;SDS011;17996;51.056;3.656;2022-12-29T14:18:28;8.32;;;1.92;;
27543;SDS011;17996;51.056;3.656;2022-12-29T14:23:43;12.55;;;2.50;;
27543;SDS011;17996;51.056;3.656;2022-12-29T14:26:11;10.48;;;2.65;;
27543;SDS011;17996;51.056;3.656;2022-12-29T14:28:51;12.75;;;2.10;;
27543;SDS011;17996;51.056;3.656;2022-12-29T14:36:34;9.13;;;2.13;;
27543;SDS011;17996;51.056;3.656;2022-12-29T14:39:03;11.07;;;2.40;;
27543;SDS011;17996;51.056;3.656;2022-12-29T14:41:33;7.97;;;1.92;;
27543;SDS011;17996;51.056;3.656;2022-12-29T14:46:44;9.88;;;2.28;;
27543;SDS011;17996;51.056;3.656;2022-12-29T14:49:21;9.93;;;1.98;;
27543;SDS011;17996;51.056;3.656;2022-12-29T14:51:53;11.35;;;2.50;;
27543;SDS011;17996;51.056;3.656;2022-12-29T14:57:05;9.65;;;2.30;;
27543;SDS011;17996;51.056;3.656;2022-12-29T14:59:33;14.50;;;2.10;;
27543;SDS011;17996;51.056;3.656;2022-12-29T15:02:01;14.10;;;3.05;;
27543;SDS011;17996;51.056;3.656;2022-12-29T15:04:37;14.00;;;2.95;;
27543;SDS011;17996;51.056;3.656;2022-12-29T15:07:06;12.65;;;3.25;;
27543;SDS011;17996;51.056;3.656;2022-12-29T15:09:45;17.88;;;3.13;;
27543;SDS011;17996;51.056;3.656;2022-12-29T15:15:10;16.98;;;3.00;;
27543;SDS011;17996;51.056;3.656;2022-12-29T15:17:42;16.55;;;3.45;;
27543;SDS011;17996;51.056;3.656;2022-12-29T15:20:14;13.80;;;3.20;;
27543;SDS011;17996;51.056;3.656;2022-12-29T15:22:49;11.70;;;3.03;;
27543;SDS011;17996;51.056;3.656;2022-12-29T15:25:19;20.98;;;2.95;;
27543;SDS011;17996;51.056;3.656;2022-12-29T15:27:51;16.95;;;3.33;;
27543;SDS011;17996;51.056;3.656;2022-12-29T15:30:18;14.60;;;3.00;;
27543;SDS011;17996;51.056;3.656;2022-12-29T15:32:45;13.25;;;3.22;;
27543;SDS011;17996;51.056;3.656;2022-12-29T15:38:01;16.58;;;3.10;;
27543;SDS011;17996;51.056;3.656;2022-12-29T15:40:38;11.85;;;2.80;;
27543;SDS011;17996;51.056;3.656;2022-12-29T15:46:00;13.82;;;2.92;;
27543;SDS011;17996;51.056;3.656;2022-12-29T15:48:27;11.98;;;2.90;;
27543;SDS011;17996;51.056;3.656;2022-12-29T15:50:53;9.27;;;2.45;;
27543;SDS011;17996;51.056;3.656;2022-12-29T15:53:21;18.60;;;3.35;;
27543;SDS011;17996;51.056;3.656;2022-12-29T15:55:59;16.27;;;3.03;;
27543;SDS011;17996;51.056;3.656;2022-12-29T15:58:31;21.70;;;3.63;;
27543;SDS011;17996;51.056;3.656;2022-12-29T16:01:15;20.17;;;5.50;;
27543;SDS011;17996;51.056;3.656;2022-12-29T16:04:08;19.95;;;4.57;;
27543;SDS011;17996;51.056;3.656;2022-12-29T16:06:38;20.08;;;4.18;;
27543;SDS011;17996;51.056;3.656;2022-12-29T16:09:15;19.52;;;3.97;;
27543;SDS011;17996;51.056;3.656;2022-12-29T16:11:44;23.33;;;4.70;;
27543;SDS011;17996;51.056;3.656;2022-12-29T16:14:16;23.60;;;4.50;;
27543;SDS011;17996;51.056;3.656;2022-12-29T16:16:44;18.90;;;3.92;;
27543;SDS011;17996;51.056;3.656;2022-12-29T16:19:13;16.30;;;3.22;;
27543;SDS011;17996;51.056;3.656;2022-12-29T16:21:49;25.27;;;4.43;;
27543;SDS011;17996;51.056;3.656;2022-12-29T16:24:18;23.55;;;4.00;;
27543;SDS011;17996;51.056;3.656;2022-12-29T16:27:02;24.70;;;4.10;;
27543;SDS011;17996;51.056;3.656;2022-12-29T16:29:34;18.20;;;3.90;;
27543;SDS011;17996;51.056;3.656;2022-12-29T16:32:01;18.00;;;4.80;;
27543;SDS011;17996;51.056;3.656;2022-12-29T16:34:31;23.02;;;5.13;;
27543;SDS011;17996;51.056;3.656;2022-12-29T16:37:29;15.48;;;4.15;;
27543;SDS011;17996;51.056;3.656;2022-12-29T16:39:50;18.30;;;3.95;;
27543;SDS011;17996;51.056;3.656;2022-12-29T16:50:35;28.58;;;5.85;;
27543;SDS011;17996;51.056;3.656;2022-12-29T16:53:03;24.20;;;5.00;;
27543;SDS011;17996;51.056;3.656;2022-12-29T16:55:30;27.45;;;4.57;;
27543;SDS011;17996;51.056;3.656;2022-12-29T16:57:57;24.17;;;4.25;;
27543;SDS011;17996;51.056;3.656;2022-12-29T17:00:27;33.42;;;5.80;;
27543;SDS011;17996;51.056;3.656;2022-12-29T17:02:57;29.70;;;6.15;;
27543;SDS011;17996;51.056;3.656;2022-12-29T17:05:24;36.13;;;6.28;;
27543;SDS011;17996;51.056;3.656;2022-12-29T17:07:50;24.02;;;5.53;;
27543;SDS011;17996;51.056;3.656;2022-12-29T17:10:18;22.88;;;4.60;;
27543;SDS011;17996;51.056;3.656;2022-12-29T17:12:44;19.73;;;4.80;;
27543;SDS011;17996;51.056;3.656;2022-12-29T17:15:21;24.20;;;4.95;;
27543;SDS011;17996;51.056;3.656;2022-12-29T17:17:51;19.05;;;4.57;;
27543;SDS011;17996;51.056;3.656;2022-12-29T17:20:23;24.17;;;3.90;;
27543;SDS011;17996;51.056;3.656;2022-12-29T17:22:51;26.70;;;4.95;;
27543;SDS011;17996;51.056;3.656;2022-12-29T17:25:22;23.05;;;4.35;;
27543;SDS011;17996;51.056;3.656;2022-12-29T17:30:32;19.42;;;4.43;;
27543;SDS011;17996;51.056;3.656;2022-12-29T17:33:01;26.05;;;4.50;;
27543;SDS011;17996;51.056;3.656;2022-12-29T17:35:33;33.45;;;5.22;;
27543;SDS011;17996;51.056;3.656;2022-12-29T17:37:58;28.65;;;4.65;;
27543;SDS011;17996;51.056;3.656;2022-12-29T17:40:29;30.33;;;5.13;;
27543;SDS011;17996;51.056;3.656;2022-12-29T17:42:57;24.42;;;4.20;;
27543;SDS011;17996;51.056;3.656;2022-12-29T17:45:27;22.88;;;5.60;;